High Tide — D5AA7 — position and weather

sailwx.info

Track history (hours):
 
Tides and Currents Weather Stations Pressure Air Temp Water Temp Dewpoint Dewpoint Depression Visibility Wind Speed Wind Dir Waves Ship Positions

High Tide

Last reported at 2016-May-24 04:23 UTC. Time now 2016-May-29 03:50 UTC.
Position N 31°21' E 121°40'.

Length 183 m; draft 10.5 m.

Type: Tanker. MMSI: 636015337.

Date/timePositionNaut miles runAvg speedWind from/ knotsBaromVisibWave heightAir tempDewpointWater temp
2016-May-24 04:23N 31°21' E 121°40'6 6.8
2016-May-24 03:33N 31°24' E 121°34'10 9.7
2016-May-24 02:34N 31°30' E 121°25'6 5.7
2016-May-24 01:32N 31°34' E 121°20'0 0.0
2016-May-24 00:32N 31°34' E 121°20'0 0.0
2016-May-23 23:32N 31°34' E 121°20'0 0.0
2016-May-23 22:32N 31°34' E 121°20'0 0.0
2016-May-23 21:29N 31°34' E 121°20'0 0.0
2016-May-23 20:32N 31°34' E 121°20'0 0.1
2016-May-23 19:32N 31°34' E 121°20'0 0.1
2016-May-23 18:32N 31°34' E 121°20'0 0.0
2016-May-23 17:32N 31°34' E 121°20'0 0.0
2016-May-23 16:32N 31°34' E 121°20'0 0.2
2016-May-23 15:32N 31°34' E 121°20'0 0.0
2016-May-23 14:32N 31°34' E 121°20'0 0.0
2016-May-23 13:32N 31°34' E 121°20'0 0.0
2016-May-23 12:32N 31°34' E 121°20'0 0.5
2016-May-23 11:34N 31°34' E 121°19'1313.1
2016-May-23 10:33N 31°42' E 121°08'2611.8
2016-May-23 08:20N 32°01' E 120°46'810.8
2016-May-23 07:33N 31°60' E 120°36'1212.0
2016-May-23 06:32N 31°59' E 120°22'1312.0
2016-May-23 05:29N 31°57' E 120°07'1212.6
2016-May-23 04:32N 32°04' E 119°56'  
2016-May-19 02:31N 32°05' E 119°55'9 7.3
2016-May-19 01:21N 31°58' E 120°01'8 9.8
2016-May-19 00:33N 31°56' E 120°10'9 9.2
2016-May-18 23:32N 31°59' E 120°20'1010.1
2016-May-18 22:31N 32°01' E 120°32'1010.4
2016-May-18 21:33N 32°01' E 120°44'12 0.9
2016-May-18 08:26N 31°53' E 120°54'6 6.3
2016-May-18 07:31N 31°47' E 120°56'10 9.2
2016-May-18 06:24N 31°43' E 121°08'1011.5
2016-May-18 05:33N 31°37' E 121°16'1111.5
2016-May-18 04:33N 31°29' E 121°26'9 8.5
2016-May-18 03:33N 31°24' E 121°34'8 8.5
2016-May-18 02:33N 31°20' E 121°43'3411.0
2016-May-17 23:26N 31°06' E 122°19'9 9.9
2016-May-17 22:33N 31°07' E 122°30'7 7.5
2016-May-17 21:33N 31°08' E 122°38'  
Track history (hours):
 
Tides and Currents Weather Stations Pressure Air Temp Water Temp Dewpoint Dewpoint Depression Visibility Wind Speed Wind Dir Waves Ship Positions

High Tide

Last reported at 2016-May-24 04:23 UTC. Time now 2016-May-29 03:50 UTC.
Position N 31°21' E 121°40'.

Length 183 m; draft 10.5 m.

Type: Tanker. MMSI: 636015337.

Date/timePositionNaut miles runAvg speedWind from/ knotsBaromVisibWave heightAir tempDewpointWater temp
2016-May-24 04:23N 31°21' E 121°40'6 6.8
2016-May-24 03:33N 31°24' E 121°34'10 9.7
2016-May-24 02:34N 31°30' E 121°25'6 5.7
2016-May-24 01:32N 31°34' E 121°20'0 0.0
2016-May-24 00:32N 31°34' E 121°20'0 0.0
2016-May-23 23:32N 31°34' E 121°20'0 0.0
2016-May-23 22:32N 31°34' E 121°20'0 0.0
2016-May-23 21:29N 31°34' E 121°20'0 0.0
2016-May-23 20:32N 31°34' E 121°20'0 0.1
2016-May-23 19:32N 31°34' E 121°20'0 0.1
2016-May-23 18:32N 31°34' E 121°20'0 0.0
2016-May-23 17:32N 31°34' E 121°20'0 0.0
2016-May-23 16:32N 31°34' E 121°20'0 0.2
2016-May-23 15:32N 31°34' E 121°20'0 0.0
2016-May-23 14:32N 31°34' E 121°20'0 0.0
2016-May-23 13:32N 31°34' E 121°20'0 0.0
2016-May-23 12:32N 31°34' E 121°20'0 0.5
2016-May-23 11:34N 31°34' E 121°19'1313.1
2016-May-23 10:33N 31°42' E 121°08'2611.8
2016-May-23 08:20N 32°01' E 120°46'810.8
2016-May-23 07:33N 31°60' E 120°36'1212.0
2016-May-23 06:32N 31°59' E 120°22'1312.0
2016-May-23 05:29N 31°57' E 120°07'1212.6
2016-May-23 04:32N 32°04' E 119°56'  
2016-May-19 02:31N 32°05' E 119°55'9 7.3
2016-May-19 01:21N 31°58' E 120°01'8 9.8
2016-May-19 00:33N 31°56' E 120°10'9 9.2
2016-May-18 23:32N 31°59' E 120°20'1010.1
2016-May-18 22:31N 32°01' E 120°32'1010.4
2016-May-18 21:33N 32°01' E 120°44'12 0.9
2016-May-18 08:26N 31°53' E 120°54'6 6.3
2016-May-18 07:31N 31°47' E 120°56'10 9.2
2016-May-18 06:24N 31°43' E 121°08'1011.5
2016-May-18 05:33N 31°37' E 121°16'1111.5
2016-May-18 04:33N 31°29' E 121°26'9 8.5
2016-May-18 03:33N 31°24' E 121°34'8 8.5
2016-May-18 02:33N 31°20' E 121°43'3411.0
2016-May-17 23:26N 31°06' E 122°19'9 9.9
2016-May-17 22:33N 31°07' E 122°30'7 7.5
2016-May-17 21:33N 31°08' E 122°38'  

Dump ship's entire track history